Terminal Aerodrome Forecast
Issued by NWS Binghamton, NY

Home | Current Version | Previous Version | Text Only | Print | Product List | Glossary On
Versions: 1 2 3 4 5 6 7 8 9 10 11 12 13 14 15 16 17 18 19 20 21
000
FTUS41 KBGM 302333
TAFAVP
TAF
KAVP 302333Z 0100/0124 VRB03KT P6SM OVC040
     FM010600 06004KT P6SM -RA OVC025
      TEMPO 0110/0114 3SM RA BR OVC012
     FM011700 18008KT P6SM -SHRA OVC025=

USA.gov is the U.S. government's official web portal to all federal, state and local government web resources and services.